Time;durP1;ratioP1;P1;durP2;ratioP2;P2;SDS_P1;SDS_P2;PMS_P1;PMS_P2;Temp;Humidity;BMP_temperature;BMP_pressure;BME280_temperature;BME280_humidity;BME280_pressure;Samples;Min_cycle;Max_cycle;Signal;HPM_P1;HPM_P2
2023/04/11 00:01:42;;;;;;;26.65;6.55;;;;;;;9.35;99.96;100738.50;5015221;28;20029;-75
2023/04/11 00:04:09;;;;;;;25.88;6.35;;;;;;;9.34;99.97;100741.28;5014406;28;20536;-74
2023/04/11 00:06:35;;;;;;;28.40;7.25;;;;;;;9.32;99.36;100736.03;5016742;28;20048;-74
2023/04/11 00:09:00;;;;;;;31.20;7.10;;;;;;;9.31;99.24;100730.78;5012348;28;20113;-75
2023/04/11 00:11:26;;;;;;;31.80;7.07;;;;;;;9.28;98.91;100739.88;5024893;28;20106;-74
2023/04/11 00:13:57;;;;;;;24.23;6.57;;;;;;;9.24;98.92;100735.72;5025649;28;20026;-74
2023/04/11 00:16:23;;;;;;;21.98;6.05;;;;;;;9.18;99.17;100733.44;5019563;28;20021;-75
2023/04/11 00:18:49;;;;;;;24.40;6.65;;;;;;;9.13;99.59;100735.59;5019163;28;20029;-74
2023/04/11 00:21:15;;;;;;;31.48;6.43;;;;;;;9.08;99.20;100746.66;5023501;28;20041;-74
2023/04/11 00:23:40;;;;;;;30.33;6.88;;;;;;;9.03;99.38;100746.94;5016728;28;20025;-74
2023/04/11 00:26:06;;;;;;;23.88;6.88;;;;;;;9.00;99.59;100735.59;5010316;28;20034;-75
2023/04/11 00:28:31;;;;;;;32.00;7.28;;;;;;;8.96;99.21;100736.75;5008048;28;20389;-75
2023/04/11 00:30:57;;;;;;;23.13;7.13;;;;;;;8.88;99.12;100748.00;5017045;28;20026;-75
2023/04/11 00:33:22;;;;;;;28.38;6.65;;;;;;;8.84;99.14;100752.69;5015949;28;20115;-74
2023/04/11 00:35:47;;;;;;;29.67;7.13;;;;;;;8.79;99.95;100745.97;5005197;28;20037;-74
2023/04/11 00:38:13;;;;;;;29.45;7.55;;;;;;;8.76;99.86;100748.84;5014807;28;20094;-75
2023/04/11 00:40:38;;;;;;;23.52;7.22;;;;;;;8.73;100.00;100761.47;5022529;28;20029;-74
2023/04/11 00:43:03;;;;;;;30.00;6.90;;;;;;;8.70;100.00;100750.97;5022496;28;20060;-75
2023/04/11 00:45:29;;;;;;;30.85;6.72;;;;;;;8.68;100.00;100760.94;5021708;28;20044;-74
2023/04/11 00:47:54;;;;;;;24.60;6.72;;;;;;;8.68;100.00;100752.03;5011563;28;20102;-74
2023/04/11 00:50:21;;;;;;;28.42;6.68;;;;;;;8.68;100.00;100752.91;5022500;28;20112;-74
2023/04/11 00:52:49;;;;;;;31.95;7.47;;;;;;;8.69;100.00;100754.59;5010592;28;20037;-74
2023/04/11 00:55:15;;;;;;;22.63;5.75;;;;;;;8.72;100.00;100756.22;5020771;28;20115;-75
2023/04/11 00:57:41;;;;;;;27.02;6.75;;;;;;;8.71;100.00;100752.69;5023693;28;20392;-74
2023/04/11 01:00:09;;;;;;;27.17;5.97;;;;;;;8.71;100.00;100749.13;5014076;28;20108;-74
2023/04/11 01:02:36;;;;;;;27.80;7.35;;;;;;;8.70;100.00;100756.31;5013842;28;20052;-77
2023/04/11 01:05:04;;;;;;;27.33;7.32;;;;;;;8.67;99.68;100751.19;5009801;28;20041;-77
2023/04/11 01:07:31;;;;;;;28.52;7.20;;;;;;;8.67;99.95;100753.84;5022560;28;20045;-78
2023/04/11 01:09:57;;;;;;;20.77;6.07;;;;;;;8.65;99.93;100749.56;5016029;28;20033;-77
2023/04/11 01:12:23;;;;;;;25.95;6.85;;;;;;;8.62;100.00;100758.66;5019893;28;20111;-77
2023/04/11 01:14:49;;;;;;;37.25;7.95;;;;;;;8.59;99.85;100753.50;5018771;28;20026;-78
2023/04/11 01:17:15;;;;;;;30.55;6.90;;;;;;;8.58;99.80;100749.13;5015650;28;20072;-77
2023/04/11 01:19:40;;;;;;;29.17;7.57;;;;;;;8.57;99.59;100750.91;5011960;28;20068;-77
2023/04/11 01:22:07;;;;;;;30.20;7.05;;;;;;;8.55;100.00;100741.25;5016874;28;20052;-77
2023/04/11 01:24:33;;;;;;;25.90;7.07;;;;;;;8.55;100.00;100746.63;5016636;28;20496;-77
2023/04/11 01:26:58;;;;;;;28.75;6.65;;;;;;;8.51;100.00;100740.63;5020257;28;20022;-77
2023/04/11 01:29:23;;;;;;;31.02;8.02;;;;;;;8.48;100.00;100746.19;5018231;28;20017;-77
2023/04/11 01:31:50;;;;;;;27.67;6.57;;;;;;;8.47;99.85;100732.91;5018650;28;20060;-77
2023/04/11 01:34:17;;;;;;;24.83;6.93;;;;;;;8.46;99.45;100745.41;5009568;28;20036;-77
2023/04/11 01:36:43;;;;;;;20.98;5.72;;;;;;;8.43;99.92;100747.41;5009606;28;20030;-77
2023/04/11 01:39:08;;;;;;;24.40;6.90;;;;;;;8.38;100.00;100748.56;5020491;28;20028;-77
2023/04/11 01:41:34;;;;;;;29.23;7.18;;;;;;;8.35;99.73;100759.47;5012500;28;20030;-77
2023/04/11 01:44:01;;;;;;;25.58;7.05;;;;;;;8.34;99.66;100764.94;5013131;28;20164;-77
2023/04/11 01:46:27;;;;;;;24.95;7.32;;;;;;;8.30;100.00;100766.09;5015421;28;20025;-77
2023/04/11 01:48:54;;;;;;;31.33;7.22;;;;;;;8.27;99.66;100761.78;5015039;28;20553;-77
2023/04/11 01:51:20;;;;;;;29.50;6.30;;;;;;;8.23;100.00;100769.19;5016424;28;20036;-77
2023/04/11 01:53:46;;;;;;;26.27;6.57;;;;;;;8.20;100.00;100766.69;5018331;28;20131;-77
2023/04/11 01:56:12;;;;;;;27.13;6.70;;;;;;;8.18;100.00;100771.28;5013213;28;20086;-77
2023/04/11 01:58:38;;;;;;;28.90;7.05;;;;;;;8.20;99.89;100779.25;5017712;28;20036;-77
2023/04/11 02:01:04;;;;;;;31.48;6.95;;;;;;;8.20;100.00;100779.25;5018743;28;20038;-77
2023/04/11 02:03:29;;;;;;;29.80;7.85;;;;;;;8.20;100.00;100765.84;5009119;28;20072;-77
2023/04/11 02:05:55;;;;;;;31.27;6.95;;;;;;;8.20;100.00;100782.75;5017909;28;20021;-77
2023/04/11 02:08:20;;;;;;;34.30;7.35;;;;;;;8.24;100.00;100780.72;5014715;28;20173;-77
2023/04/11 02:10:45;;;;;;;30.63;7.32;;;;;;;8.22;100.00;100775.47;5017310;28;20041;-77
2023/04/11 02:13:11;;;;;;;29.92;7.65;;;;;;;8.25;100.00;100790.50;5021933;28;20018;-77
2023/04/11 02:15:36;;;;;;;31.48;7.10;;;;;;;8.25;100.00;100798.53;5017734;28;20033;-77
2023/04/11 02:18:01;;;;;;;27.95;7.68;;;;;;;8.20;100.00;100790.78;5026453;28;20036;-77
2023/04/11 02:20:26;;;;;;;30.65;7.78;;;;;;;8.20;99.81;100800.66;5013754;28;20037;-77
2023/04/11 02:22:52;;;;;;;31.63;7.70;;;;;;;8.19;99.64;100793.56;5016763;28;20049;-77
2023/04/11 02:25:17;;;;;;;28.70;6.63;;;;;;;8.22;100.00;100796.06;5010398;28;20018;-78
2023/04/11 02:27:42;;;;;;;27.52;7.78;;;;;;;8.27;100.00;100791.25;5023066;28;20025;-77
2023/04/11 02:30:08;;;;;;;30.58;7.35;;;;;;;8.26;99.61;100797.56;5020063;28;20026;-77
2023/04/11 02:32:34;;;;;;;30.63;7.47;;;;;;;8.27;98.92;100801.94;5018698;28;20324;-78
2023/04/11 02:35:00;;;;;;;29.38;8.32;;;;;;;8.29;99.06;100800.06;5007774;28;20029;-77
2023/04/11 02:37:26;;;;;;;28.48;7.45;;;;;;;8.31;99.52;100808.00;5010567;28;20041;-77
2023/04/11 02:39:52;;;;;;;29.95;7.65;;;;;;;8.31;98.85;100791.91;5021679;28;20497;-77
2023/04/11 02:42:17;;;;;;;24.55;7.10;;;;;;;8.32;98.99;100810.56;5020095;28;20030;-77
2023/04/11 02:44:42;;;;;;;30.45;6.93;;;;;;;8.33;97.44;100800.69;5020782;28;20404;-77
2023/04/11 02:47:08;;;;;;;25.70;6.55;;;;;;;8.34;97.89;100813.13;5020574;28;20052;-77
2023/04/11 02:49:33;;;;;;;23.83;6.38;;;;;;;8.35;97.34;100813.03;5012434;28;20116;-77
2023/04/11 02:51:58;;;;;;;34.72;7.20;;;;;;;8.35;97.61;100807.69;5017805;28;20033;-77
2023/04/11 02:54:24;;;;;;;27.63;6.97;;;;;;;8.34;96.59;100819.34;5013655;28;20034;-77
2023/04/11 02:56:51;;;;;;;24.88;6.65;;;;;;;8.34;95.99;100816.66;5011980;28;20520;-77
2023/04/11 02:59:16;;;;;;;21.88;5.30;;;;;;;8.35;95.95;100805.00;5019178;28;20021;-77
2023/04/11 03:01:43;;;;;;;24.98;5.60;;;;;;;8.33;95.49;100812.28;5016660;28;20022;-77
2023/04/11 03:04:09;;;;;;;23.67;6.32;;;;;;;8.34;96.47;100813.13;5012368;28;20029;-77
2023/04/11 03:06:34;;;;;;;20.25;5.35;;;;;;;8.34;95.14;100815.81;5012168;28;20057;-77
2023/04/11 03:09:00;;;;;;;27.88;5.80;;;;;;;8.34;95.94;100813.13;5026498;28;20504;-77
2023/04/11 03:11:25;;;;;;;21.60;5.35;;;;;;;8.31;94.80;100808.00;5014468;28;20299;-77
2023/04/11 03:13:51;;;;;;;19.75;4.22;;;;;;;8.29;94.31;100818.81;5020872;28;20126;-77
2023/04/11 03:16:16;;;;;;;22.88;4.90;;;;;;;8.29;93.31;100825.97;5022769;28;20034;-77
2023/04/11 03:18:41;;;;;;;31.50;5.10;;;;;;;8.27;93.40;100831.41;5020948;28;20065;-77
2023/04/11 03:21:09;;;;;;;16.48;4.13;;;;;;;8.22;93.82;100823.69;5018833;28;20435;-77
2023/04/11 03:23:34;;;;;;;26.17;4.72;;;;;;;8.18;92.71;100829.31;5018681;28;20397;-77
2023/04/11 03:26:03;;;;;;;19.95;3.30;;;;;;;8.14;92.00;100838.50;5018689;28;20032;-77
2023/04/11 03:28:28;;;;;;;18.77;4.28;;;;;;;8.14;93.07;100841.19;5031643;28;20079;-77
2023/04/11 03:30:53;;;;;;;21.33;4.00;;;;;;;8.15;92.90;100840.22;5014556;28;20393;-78
2023/04/11 03:33:19;;;;;;;14.60;3.75;;;;;;;8.14;93.06;100850.09;5019292;28;20030;-77
2023/04/11 03:35:44;;;;;;;18.55;3.92;;;;;;;8.15;92.63;100845.59;5005058;28;20029;-77
2023/04/11 03:38:09;;;;;;;23.27;4.63;;;;;;;8.14;91.56;100841.19;5014436;28;20021;-77
2023/04/11 03:40:35;;;;;;;14.70;3.53;;;;;;;8.13;92.58;100853.72;5009923;28;20033;-77
2023/04/11 03:43:00;;;;;;;21.42;4.30;;;;;;;8.13;92.04;100851.03;5017427;28;20413;-77
2023/04/11 03:45:26;;;;;;;20.60;3.97;;;;;;;8.13;91.85;100852.88;5018297;28;20534;-77
2023/04/11 03:47:51;;;;;;;25.33;4.57;;;;;;;8.14;91.59;100854.56;5015232;28;20037;-77
2023/04/11 03:50:17;;;;;;;25.23;4.55;;;;;;;8.11;91.40;100854.75;5021952;28;20166;-77
2023/04/11 03:52:42;;;;;;;19.17;4.68;;;;;;;8.10;91.53;100856.59;5015111;28;20026;-77
2023/04/11 03:55:07;;;;;;;20.38;3.78;;;;;;;8.08;91.75;100857.63;5016472;28;20098;-77
2023/04/11 03:57:33;;;;;;;16.05;4.28;;;;;;;8.05;90.98;100856.00;5023097;28;20044;-77
2023/04/11 03:59:58;;;;;;;20.05;3.85;;;;;;;8.04;91.41;100855.16;5013695;28;20049;-77
2023/04/11 04:02:24;;;;;;;23.35;4.95;;;;;;;8.01;91.62;100866.06;5012863;28;20266;-77
2023/04/11 04:04:54;;;;;;;13.75;3.25;;;;;;;8.00;91.79;100856.28;5016417;28;20033;-77
2023/04/11 04:07:23;;;;;;;17.17;4.80;;;;;;;7.98;91.34;100868.94;5019824;28;20080;-77
2023/04/11 04:09:49;;;;;;;21.25;4.30;;;;;;;7.97;91.83;100869.03;5015621;28;20076;-77
2023/04/11 04:12:16;;;;;;;26.45;5.05;;;;;;;7.95;91.99;100866.44;5014996;28;20556;-77
2023/04/11 04:14:42;;;;;;;19.13;5.07;;;;;;;7.94;91.62;100862.03;5011451;28;20075;-77
2023/04/11 04:17:08;;;;;;;22.35;4.72;;;;;;;7.91;92.10;100864.06;5010898;28;20038;-77
2023/04/11 04:19:33;;;;;;;21.33;5.22;;;;;;;7.85;92.53;100863.47;5013787;28;20404;-77
2023/04/11 04:21:58;;;;;;;22.73;4.65;;;;;;;7.82;92.18;100865.47;5017199;28;20022;-77
2023/04/11 04:24:28;;;;;;;22.35;4.68;;;;;;;7.77;93.01;100875.59;5018550;28;20490;-77
2023/04/11 04:26:56;;;;;;;20.85;4.55;;;;;;;7.74;92.85;100879.31;5022223;28;20593;-77
2023/04/11 04:29:22;;;;;;;27.65;6.38;;;;;;;7.71;93.66;100871.47;5018648;28;20032;-77
2023/04/11 04:31:49;;;;;;;20.20;5.30;;;;;;;7.71;93.31;100879.50;5020908;28;20121;-77
2023/04/11 04:34:20;;;;;;;19.00;5.03;;;;;;;7.68;93.41;100890.38;5015244;28;20528;-77
2023/04/11 04:36:46;;;;;;;28.92;5.43;;;;;;;7.63;93.60;100885.31;5006821;28;20065;-77
2023/04/11 04:39:18;;;;;;;27.85;6.32;;;;;;;7.62;93.55;100898.78;5015592;28;20043;-77
2023/04/11 04:41:45;;;;;;;23.02;5.05;;;;;;;7.58;93.62;100902.59;5012503;28;20053;-76
2023/04/11 04:44:10;;;;;;;24.20;5.32;;;;;;;7.52;93.88;100907.34;5016412;28;20413;-77
2023/04/11 04:46:36;;;;;;;22.63;4.72;;;;;;;7.48;94.33;100907.63;5014006;28;20033;-77
2023/04/11 04:49:05;;;;;;;20.88;5.18;;;;;;;7.46;94.59;100909.53;5015830;28;20366;-76
2023/04/11 04:51:31;;;;;;;19.35;4.32;;;;;;;7.41;94.92;100907.16;5017087;28;20037;-77
2023/04/11 04:53:59;;;;;;;21.13;5.10;;;;;;;7.37;94.79;100916.28;5017691;28;20025;-77
2023/04/11 04:56:29;;;;;;;19.70;4.20;;;;;;;7.35;94.76;100924.41;5006822;28;20112;-77
2023/04/11 04:58:54;;;;;;;25.30;5.53;;;;;;;7.35;94.90;100921.72;5020145;28;20034;-77
2023/04/11 05:01:20;;;;;;;19.77;4.88;;;;;;;7.33;95.18;100934.31;5020499;28;20079;-76
2023/04/11 05:03:49;;;;;;;23.33;3.83;;;;;;;7.29;95.26;100938.13;5021909;28;20502;-77
2023/04/11 05:06:15;;;;;;;22.50;4.68;;;;;;;7.28;95.12;100936.41;5016699;28;20148;-77
2023/04/11 05:08:40;;;;;;;19.40;4.55;;;;;;;7.27;94.93;100944.53;5010772;28;20120;-77
2023/04/11 05:11:05;;;;;;;18.55;4.03;;;;;;;7.26;94.92;100940.13;5010925;28;20022;-76
2023/04/11 05:13:32;;;;;;;25.63;4.35;;;;;;;7.26;95.27;100938.31;5019855;28;20025;-76
2023/04/11 05:15:58;;;;;;;21.48;3.88;;;;;;;7.25;95.01;100939.25;5019349;28;20116;-77
2023/04/11 05:18:23;;;;;;;23.63;4.97;;;;;;;7.23;95.07;100945.63;5017116;28;20136;-77
2023/04/11 05:20:48;;;;;;;15.32;3.78;;;;;;;7.24;95.05;100945.56;5016849;28;20483;-77
2023/04/11 05:23:15;;;;;;;17.27;3.80;;;;;;;7.24;95.32;100948.22;5017449;28;20116;-77
2023/04/11 05:25:40;;;;;;;15.27;4.10;;;;;;;7.22;95.58;100944.78;5018789;28;20025;-77
2023/04/11 05:28:05;;;;;;;18.67;4.30;;;;;;;7.22;95.08;100949.25;5006979;28;20076;-77
2023/04/11 05:30:31;;;;;;;19.02;3.58;;;;;;;7.20;95.67;100952.03;5004211;28;20096;-76
2023/04/11 05:32:56;;;;;;;18.17;4.53;;;;;;;7.19;95.54;100955.66;5006368;28;20120;-76
2023/04/11 05:35:21;;;;;;;17.35;4.45;;;;;;;7.18;95.10;100962.81;5004082;28;20048;-77
2023/04/11 05:37:47;;;;;;;23.42;3.67;;;;;;;7.18;95.02;100968.16;5014067;28;20077;-77
2023/04/11 05:40:12;;;;;;;18.85;4.00;;;;;;;7.18;95.63;100970.81;5016071;28;20029;-77
2023/04/11 05:42:37;;;;;;;16.08;3.70;;;;;;;7.22;95.58;100971.53;5004250;28;20365;-77
2023/04/11 05:45:03;;;;;;;19.33;4.03;;;;;;;7.21;94.88;100974.28;5011680;28;20465;-77
2023/04/11 05:47:28;;;;;;;19.67;4.00;;;;;;;7.23;94.61;100978.56;5018643;28;20052;-77
2023/04/11 05:49:53;;;;;;;22.10;4.80;;;;;;;7.25;95.05;100984.72;5022854;28;20037;-77
2023/04/11 05:52:19;;;;;;;23.70;4.05;;;;;;;7.28;94.60;100986.34;5020528;28;20025;-77
2023/04/11 05:54:44;;;;;;;21.60;4.57;;;;;;;7.31;94.57;100991.53;5012620;28;20030;-77
2023/04/11 05:57:09;;;;;;;21.13;4.10;;;;;;;7.33;94.69;100997.63;5007951;28;20079;-77
2023/04/11 05:59:35;;;;;;;17.77;4.55;;;;;;;7.34;94.33;100997.53;5017449;28;20051;-77
2023/04/11 06:02:01;;;;;;;15.65;3.15;;;;;;;7.35;95.51;100996.59;5020005;28;20507;-77
2023/04/11 06:04:26;;;;;;;19.85;4.68;;;;;;;7.36;94.39;101005.47;5021248;28;20589;-77
2023/04/11 06:06:52;;;;;;;19.45;3.85;;;;;;;7.34;94.73;101002.88;5009273;28;20064;-76
2023/04/11 06:09:18;;;;;;;18.63;4.25;;;;;;;7.35;94.26;101007.28;5006809;28;20050;-77
2023/04/11 06:11:43;;;;;;;18.88;4.10;;;;;;;7.38;94.71;101005.38;5007808;28;20048;-78
2023/04/11 06:14:08;;;;;;;17.52;4.28;;;;;;;7.41;94.85;101010.53;5008010;28;20084;-78
2023/04/11 06:16:35;;;;;;;22.50;4.60;;;;;;;7.43;94.41;101003.31;5008479;28;20034;-78
2023/04/11 06:19:02;;;;;;;21.17;4.43;;;;;;;7.46;94.83;101008.50;5003947;28;20037;-78
2023/04/11 06:21:27;;;;;;;17.25;3.83;;;;;;;7.49;95.38;101005.63;5005589;28;20416;-76
2023/04/11 06:23:52;;;;;;;17.30;4.45;;;;;;;7.53;94.88;101017.88;5007627;28;20468;-76
2023/04/11 06:26:18;;;;;;;25.20;4.57;;;;;;;7.56;94.99;101014.19;5000367;28;20108;-75
2023/04/11 06:28:43;;;;;;;18.73;3.75;;;;;;;7.60;94.44;101005.00;5009321;28;20022;-76
2023/04/11 06:31:08;;;;;;;23.52;4.22;;;;;;;7.63;93.82;101015.53;5003646;28;20045;-76
2023/04/11 06:33:33;;;;;;;19.83;3.63;;;;;;;7.67;94.60;101017.94;5008374;28;20026;-76
2023/04/11 06:35:59;;;;;;;20.85;3.97;;;;;;;7.70;93.81;101028.47;5002976;28;20033;-76
2023/04/11 06:38:24;;;;;;;20.33;4.28;;;;;;;7.74;93.18;101031.81;5012361;28;20100;-76
2023/04/11 06:40:51;;;;;;;18.45;4.03;;;;;;;7.77;93.15;101028.94;5026491;28;20021;-76
2023/04/11 06:43:16;;;;;;;18.65;3.95;;;;;;;7.80;93.45;101034.13;5010433;28;20081;-76
2023/04/11 06:45:41;;;;;;;20.88;4.35;;;;;;;7.83;92.88;101033.09;5022042;28;20116;-76
2023/04/11 06:48:07;;;;;;;18.08;4.45;;;;;;;7.86;93.27;101041.81;5016247;28;20017;-76
2023/04/11 06:50:32;;;;;;;22.55;5.68;;;;;;;7.93;93.14;101042.28;5025178;28;20434;-76
2023/04/11 06:52:58;;;;;;;22.25;4.65;;;;;;;7.98;93.72;101047.38;5023163;28;20040;-77
2023/04/11 06:55:23;;;;;;;18.63;4.47;;;;;;;8.02;92.02;101048.91;5012852;28;20034;-76
2023/04/11 06:57:48;;;;;;;23.65;5.57;;;;;;;8.09;92.77;101049.41;5020521;28;20358;-76
2023/04/11 07:00:15;;;;;;;22.20;4.80;;;;;;;8.13;92.24;101053.66;5014859;28;20055;-76
2023/04/11 07:02:40;;;;;;;22.42;5.38;;;;;;;8.17;91.69;101060.50;5015868;28;20030;-76
2023/04/11 07:05:08;;;;;;;23.70;5.82;;;;;;;8.24;91.12;101056.50;5019910;28;20040;-76
2023/04/11 07:07:33;;;;;;;25.35;5.50;;;;;;;8.29;91.22;101058.94;5023495;28;20046;-76
2023/04/11 07:09:59;;;;;;;21.88;5.72;;;;;;;8.32;91.03;101067.63;5015854;28;20055;-76
2023/04/11 07:12:24;;;;;;;27.27;5.68;;;;;;;8.33;90.30;101064.00;5012379;28;20033;-76
2023/04/11 07:14:49;;;;;;;17.70;4.45;;;;;;;8.35;88.68;101064.78;5020415;28;20033;-76
2023/04/11 07:17:15;;;;;;;22.08;4.70;;;;;;;8.39;89.34;101060.97;5021093;28;20352;-76
2023/04/11 07:19:40;;;;;;;21.20;6.50;;;;;;;8.47;90.36;101065.03;5009036;28;20430;-76
2023/04/11 07:22:05;;;;;;;25.42;6.07;;;;;;;8.57;88.82;101069.72;5021592;28;20017;-76
2023/04/11 07:24:31;;;;;;;16.17;5.05;;;;;;;8.68;88.13;101074.44;5013482;28;20026;-76
2023/04/11 07:27:00;;;;;;;20.45;5.78;;;;;;;8.79;87.74;101083.63;5015665;28;20157;-76
2023/04/11 07:29:26;;;;;;;23.23;6.50;;;;;;;8.84;86.51;101079.66;5017027;28;20025;-76
2023/04/11 07:31:52;;;;;;;24.08;5.55;;;;;;;8.86;84.74;101082.28;5008414;28;20079;-76
2023/04/11 07:34:17;;;;;;;21.55;4.68;;;;;;;8.87;84.39;101094.69;5022694;28;20473;-76
2023/04/11 07:36:42;;;;;;;21.80;4.72;;;;;;;8.85;83.90;101083.22;5016889;28;20029;-76
2023/04/11 07:39:11;;;;;;;18.35;4.90;;;;;;;8.87;84.96;101102.75;5012206;28;20105;-76
2023/04/11 07:41:36;;;;;;;25.17;5.03;;;;;;;8.92;83.92;101097.97;5017396;28;20448;-76
2023/04/11 07:44:03;;;;;;;20.23;4.30;;;;;;;9.01;83.04;101093.84;5015709;28;20053;-76
2023/04/11 07:46:28;;;;;;;17.98;4.55;;;;;;;9.08;82.15;101098.72;5020695;28;20053;-77
2023/04/11 07:48:53;;;;;;;20.30;4.85;;;;;;;9.16;81.58;101102.75;5015551;28;20033;-76
2023/04/11 07:51:19;;;;;;;18.05;4.97;;;;;;;9.21;82.02;101097.94;5013480;28;20425;-76
2023/04/11 07:53:44;;;;;;;22.60;4.40;;;;;;;9.20;79.21;101094.41;5022262;28;20041;-76
2023/04/11 07:56:11;;;;;;;25.15;4.72;;;;;;;9.24;79.88;101097.78;5013710;28;20507;-76
2023/04/11 07:58:36;;;;;;;23.55;4.70;;;;;;;9.29;80.44;101098.31;5023788;28;20080;-76
2023/04/11 08:01:02;;;;;;;18.02;4.30;;;;;;;9.36;80.10;101106.84;5019834;28;20030;-76
2023/04/11 08:03:28;;;;;;;23.25;4.70;;;;;;;9.47;80.47;101108.81;5016157;28;20036;-77
2023/04/11 08:05:53;;;;;;;16.98;4.78;;;;;;;9.52;78.64;101107.56;5014614;28;20030;-77
2023/04/11 08:08:18;;;;;;;18.10;4.30;;;;;;;9.58;77.95;101107.16;5021713;28;20704;-76
2023/04/11 08:10:43;;;;;;;18.38;3.53;;;;;;;9.62;76.70;101111.38;5016124;28;20133;-77
2023/04/11 08:13:09;;;;;;;19.27;4.05;;;;;;;9.68;77.73;101110.13;5018018;28;20045;-76
2023/04/11 08:15:35;;;;;;;18.48;3.80;;;;;;;9.71;75.44;101117.97;5013126;28;20096;-76
2023/04/11 08:18:01;;;;;;;12.73;3.25;;;;;;;9.74;77.00;101117.78;5009720;28;20453;-76
2023/04/11 08:20:26;;;;;;;23.90;3.83;;;;;;;9.79;76.23;101121.03;5010740;28;20109;-76
2023/04/11 08:22:51;;;;;;;15.80;3.35;;;;;;;9.86;75.36;101115.25;5020420;28;20029;-77
2023/04/11 08:25:18;;;;;;;17.05;3.45;;;;;;;9.87;74.39;101125.00;5011961;28;20022;-76
2023/04/11 08:27:44;;;;;;;13.68;3.17;;;;;;;9.91;74.85;101137.25;5005995;28;20018;-76
2023/04/11 08:30:10;;;;;;;16.73;3.38;;;;;;;9.93;73.84;101136.22;5014767;28;20064;-77
2023/04/11 08:32:36;;;;;;;18.75;3.20;;;;;;;9.95;71.01;101139.63;5013546;28;20025;-76
2023/04/11 08:35:01;;;;;;;17.52;3.90;;;;;;;9.96;71.33;101133.31;5019101;28;20147;-76
2023/04/11 08:37:27;;;;;;;18.52;3.50;;;;;;;9.97;71.66;101151.16;5016755;28;20401;-76
2023/04/11 08:39:52;;;;;;;18.17;3.33;;;;;;;10.02;71.10;101139.25;5022387;28;20029;-76
2023/04/11 08:42:26;;;;;;;17.90;3.20;;;;;;;10.04;70.67;101148.91;5018964;28;20347;-76
2023/04/11 08:44:53;;;;;;;23.42;3.92;;;;;;;10.09;72.06;101154.00;5013259;28;20120;-76
2023/04/11 08:47:18;;;;;;;14.63;3.38;;;;;;;10.10;72.02;101153.91;5019802;28;20508;-76
2023/04/11 08:49:43;;;;;;;19.73;3.92;;;;;;;10.13;70.32;101160.88;5019400;28;20100;-77
2023/04/11 08:52:09;;;;;;;12.00;2.83;;;;;;;10.09;69.92;101154.00;5018045;28;20064;-76
2023/04/11 08:54:34;;;;;;;20.48;3.90;;;;;;;10.05;69.83;101150.66;5019137;28;20146;-76
2023/04/11 08:56:59;;;;;;;17.02;3.40;;;;;;;10.08;68.65;101153.13;5009607;28;20038;-76
2023/04/11 08:59:26;;;;;;;15.30;3.10;;;;;;;10.07;70.47;101151.41;5014115;28;20543;-76
2023/04/11 09:01:51;;;;;;;20.33;3.83;;;;;;;10.04;68.90;101150.75;5011266;28;20366;-77
2023/04/11 09:04:16;;;;;;;13.93;2.95;;;;;;;9.98;68.35;101154.69;5020569;28;20156;-76
2023/04/11 09:06:55;;;;;;;16.08;3.58;;;;;;;9.96;70.35;101156.63;5019475;28;20038;-76
2023/04/11 09:09:30;;;;;;;18.35;3.70;;;;;;;9.99;70.80;101144.84;5016011;28;20061;-76
2023/04/11 09:11:55;;;;;;;16.70;3.50;;;;;;;10.06;71.05;101154.19;5014377;28;20036;-76
2023/04/11 09:14:25;;;;;;;16.77;3.30;;;;;;;10.12;69.72;101159.16;5014254;28;20029;-76
2023/04/11 09:16:58;;;;;;;20.50;3.33;;;;;;;10.19;71.31;101163.16;5017896;28;20041;-76
2023/04/11 09:19:28;;;;;;;16.80;2.97;;;;;;;10.27;69.10;101150.06;5014282;28;20107;-76
2023/04/11 09:21:59;;;;;;;16.75;2.80;;;;;;;10.33;68.67;101148.78;5015950;28;20088;-76
2023/04/11 09:24:25;;;;;;;12.82;3.28;;;;;;;10.43;69.29;101154.44;5017582;28;20552;-76
2023/04/11 09:27:05;;;;;;;11.80;3.00;;;;;;;10.53;67.36;101160.03;5019483;28;20025;-75
2023/04/11 09:29:45;;;;;;;16.35;3.40;;;;;;;10.65;67.22;101161.91;5008912;28;20381;-76
2023/04/11 09:32:33;;;;;;;11.00;2.58;;;;;;;10.68;67.04;101164.38;5015011;28;20033;-76
2023/04/11 09:35:12;;;;;;;15.82;3.28;;;;;;;10.66;65.67;101174.38;5013495;28;20553;-76
2023/04/11 09:37:44;;;;;;;15.75;2.95;;;;;;;10.62;64.06;101167.50;5016246;28;20033;-76
2023/04/11 09:40:10;;;;;;;14.07;2.60;;;;;;;10.62;64.23;101167.50;5016820;28;20029;-76
2023/04/11 09:42:36;;;;;;;12.25;2.67;;;;;;;10.71;63.83;101174.91;5013712;28;20037;-76
2023/04/11 09:45:02;;;;;;;10.55;2.60;;;;;;;10.84;67.05;101166.88;5021255;28;20030;-76
2023/04/11 09:47:34;;;;;;;14.20;2.42;;;;;;;10.92;63.87;101167.22;5015338;28;20021;-77
2023/04/11 09:50:00;;;;;;;18.85;3.58;;;;;;;10.96;64.70;101165.16;5019455;28;20026;-76
2023/04/11 09:52:26;;;;;;;9.13;2.42;;;;;;;10.95;61.54;101179.56;5020028;28;20087;-77
2023/04/11 09:54:52;;;;;;;13.88;3.20;;;;;;;10.93;63.16;101173.44;5019351;28;20033;-76
2023/04/11 09:57:21;;;;;;;10.45;2.75;;;;;;;10.89;60.85;101177.31;5016734;28;20029;-76
2023/04/11 09:59:47;;;;;;;12.98;2.97;;;;;;;10.82;59.41;101172.34;5025202;28;20392;-76
2023/04/11 10:02:12;;;;;;;13.45;3.00;;;;;;;10.81;60.30;101162.56;5015618;28;20022;-76
2023/04/11 10:04:39;;;;;;;12.43;2.97;;;;;;;10.93;61.55;101176.97;5016070;28;20410;-76
2023/04/11 10:07:11;;;;;;;13.02;2.35;;;;;;;11.04;62.37;101178.94;5020103;28;20067;-76
2023/04/11 10:09:42;;;;;;;13.05;2.58;;;;;;;11.13;58.30;101188.19;5016938;28;20747;-76
2023/04/11 10:12:07;;;;;;;13.80;2.90;;;;;;;11.15;56.52;101168.25;5016927;28;20112;-76
2023/04/11 10:14:40;;;;;;;13.77;2.17;;;;;;;11.31;59.03;101180.63;5017180;28;20100;-77
2023/04/11 10:17:15;;;;;;;15.25;3.00;;;;;;;11.39;55.92;101183.66;5019138;28;20107;-78
2023/04/11 10:19:42;;;;;;;13.48;3.20;;;;;;;11.41;55.95;101181.69;5008061;28;20053;-76
2023/04/11 10:22:08;;;;;;;10.52;2.08;;;;;;;11.41;56.37;101162.88;5017653;28;20030;-76
2023/04/11 10:24:33;;;;;;;15.73;2.92;;;;;;;11.45;55.92;101164.38;5015543;28;20075;-76
2023/04/11 10:27:03;;;;;;;11.02;2.35;;;;;;;11.51;57.81;101165.75;5009177;28;20032;-76
2023/04/11 10:29:28;;;;;;;11.88;2.22;;;;;;;11.59;56.31;101157.97;5017375;28;20029;-76
2023/04/11 10:32:07;;;;;;;14.15;2.53;;;;;;;11.65;56.69;101168.28;5010428;28;20040;-76
2023/04/11 10:34:34;;;;;;;10.48;2.28;;;;;;;11.72;56.16;101161.47;5012207;28;20875;-76
2023/04/11 10:37:03;;;;;;;9.45;2.15;;;;;;;11.81;56.25;101169.88;5018743;28;20036;-76
2023/04/11 10:39:46;;;;;;;11.18;2.53;;;;;;;11.80;56.28;101177.09;5017322;28;20022;-76
2023/04/11 10:42:34;;;;;;;7.68;2.13;;;;;;;11.78;54.68;101167.41;5012681;28;20048;-76
2023/04/11 10:45:12;;;;;;;11.15;2.58;;;;;;;11.84;54.92;101175.88;5008090;28;20472;-76
2023/04/11 10:47:37;;;;;;;7.45;2.10;;;;;;;11.84;49.55;101175.88;5012503;28;20123;-76
2023/04/11 10:50:03;;;;;;;7.20;2.08;;;;;;;11.92;53.39;101171.75;5023575;28;20018;-76
2023/04/11 10:52:36;;;;;;;8.18;2.10;;;;;;;11.94;53.15;101167.16;5022105;28;20033;-76
2023/04/11 10:55:15;;;;;;;13.77;2.63;;;;;;;12.01;53.72;101165.75;5010068;28;20490;-76
2023/04/11 10:58:06;;;;;;;9.18;2.13;;;;;;;11.99;53.92;101175.75;5029718;28;20196;-76
2023/04/11 11:00:49;;;;;;;11.60;2.05;;;;;;;11.96;52.94;101165.22;5006801;28;20034;-77
2023/04/11 11:03:29;;;;;;;9.90;2.33;;;;;;;11.95;54.60;101171.56;5010289;28;20316;-76
2023/04/11 11:06:05;;;;;;;;;;;;;;;11.98;54.68;101171.38;5020024;28;20033;-75
2023/04/11 11:08:40;;;;;;;13.43;2.53;;;;;;;12.02;53.46;101180.91;5017291;28;19918;-76
2023/04/11 11:11:08;;;;;;;8.77;2.13;;;;;;;11.98;50.44;101165.97;5017889;28;20032;-76
2023/04/11 11:13:54;;;;;;;12.20;2.38;;;;;;;11.89;52.09;101171.03;5018983;28;20029;-76
2023/04/11 11:16:21;;;;;;;7.75;2.20;;;;;;;11.89;54.40;101181.81;5011522;28;20148;-75
2023/04/11 11:18:49;;;;;;;12.55;2.47;;;;;;;11.92;51.99;101191.50;5019486;28;20084;-76
2023/04/11 11:21:21;;;;;;;11.20;2.55;;;;;;;11.94;48.92;101184.19;5013310;28;20082;-75
2023/04/11 11:23:57;;;;;;;8.40;1.85;;;;;;;11.97;49.13;101193.88;5017003;28;20026;-75